Ardmore, Missouri
Current Conditions -  °F | °C
As of 8:55 PM on Friday 28 Nov 2014 (Local Time) from KIRK Reporting Station
Clear Clear  
Wind Chill: 38°   Ceiling: Unl
Heat Index: 43°   Visibility: 10mi
Dew Point: 34°   Wind: 9mph
Humidity: 71%   Direction: 190°S
Pressure: 29.78"   Gusts: NA
Location:  39.6493°N, 92.4492°W
Report Text: KIRK 290255Z AUTO 19008KT 10SM CLR 06/01 A2978 RMK AO2 SLP093 T00610011 58011
Loading
Personal Weather Stations






























Interactive Weather Map New forecast layout! Learn more

10-Day Weather Forecast

Advertisements
Track Severe Weather on mobile